sensor_id;sensor_type;location;lat;lon;timestamp;P1;durP1;ratioP1;P2;durP2;ratioP2
11984;SDS011;6052;53.246;10.368;2023-09-18T00:02:22;3.95;;;2.75;;
11984;SDS011;6052;53.246;10.368;2023-09-18T00:04:52;3.40;;;3.00;;
11984;SDS011;6052;53.246;10.368;2023-09-18T00:07:21;3.47;;;3.03;;
11984;SDS011;6052;53.246;10.368;2023-09-18T00:09:51;3.05;;;2.65;;
11984;SDS011;6052;53.246;10.368;2023-09-18T00:12:20;5.72;;;2.72;;
11984;SDS011;6052;53.246;10.368;2023-09-18T00:14:50;3.42;;;2.80;;
11984;SDS011;6052;53.246;10.368;2023-09-18T00:17:22;2.97;;;2.60;;
11984;SDS011;6052;53.246;10.368;2023-09-18T00:19:51;2.95;;;2.65;;
11984;SDS011;6052;53.246;10.368;2023-09-18T00:22:21;3.17;;;2.85;;
11984;SDS011;6052;53.246;10.368;2023-09-18T00:24:51;3.70;;;2.72;;
11984;SDS011;6052;53.246;10.368;2023-09-18T00:27:20;3.33;;;2.83;;
11984;SDS011;6052;53.246;10.368;2023-09-18T00:29:49;3.20;;;2.58;;
11984;SDS011;6052;53.246;10.368;2023-09-18T00:32:21;3.65;;;2.90;;
11984;SDS011;6052;53.246;10.368;2023-09-18T00:34:51;3.58;;;3.00;;
11984;SDS011;6052;53.246;10.368;2023-09-18T00:37:20;4.53;;;2.83;;
11984;SDS011;6052;53.246;10.368;2023-09-18T00:39:50;3.13;;;2.83;;
11984;SDS011;6052;53.246;10.368;2023-09-18T00:42:19;2.75;;;2.45;;
11984;SDS011;6052;53.246;10.368;2023-09-18T00:44:49;3.42;;;2.85;;
11984;SDS011;6052;53.246;10.368;2023-09-18T00:47:18;3.25;;;2.92;;
11984;SDS011;6052;53.246;10.368;2023-09-18T00:49:51;4.65;;;2.70;;
11984;SDS011;6052;53.246;10.368;2023-09-18T00:52:22;3.15;;;2.42;;
11984;SDS011;6052;53.246;10.368;2023-09-18T00:54:52;3.00;;;2.63;;
11984;SDS011;6052;53.246;10.368;2023-09-18T00:57:22;3.92;;;2.85;;
11984;SDS011;6052;53.246;10.368;2023-09-18T00:59:52;3.13;;;2.72;;
11984;SDS011;6052;53.246;10.368;2023-09-18T01:02:24;3.20;;;2.90;;
11984;SDS011;6052;53.246;10.368;2023-09-18T01:04:54;4.45;;;3.15;;
11984;SDS011;6052;53.246;10.368;2023-09-18T01:07:25;3.13;;;2.75;;
11984;SDS011;6052;53.246;10.368;2023-09-18T01:09:55;3.28;;;2.40;;
11984;SDS011;6052;53.246;10.368;2023-09-18T01:12:27;4.00;;;3.60;;
11984;SDS011;6052;53.246;10.368;2023-09-18T01:15:04;3.42;;;2.83;;
11984;SDS011;6052;53.246;10.368;2023-09-18T01:17:43;3.35;;;2.75;;
11984;SDS011;6052;53.246;10.368;2023-09-18T01:20:12;3.55;;;2.90;;
11984;SDS011;6052;53.246;10.368;2023-09-18T01:22:45;3.30;;;2.78;;
11984;SDS011;6052;53.246;10.368;2023-09-18T01:25:16;2.70;;;2.47;;
11984;SDS011;6052;53.246;10.368;2023-09-18T01:27:48;3.47;;;2.67;;
11984;SDS011;6052;53.246;10.368;2023-09-18T01:30:18;2.95;;;2.65;;
11984;SDS011;6052;53.246;10.368;2023-09-18T01:32:47;3.42;;;2.95;;
11984;SDS011;6052;53.246;10.368;2023-09-18T01:35:18;3.75;;;3.00;;
11984;SDS011;6052;53.246;10.368;2023-09-18T01:37:52;4.57;;;2.90;;
11984;SDS011;6052;53.246;10.368;2023-09-18T01:40:21;3.90;;;2.90;;
11984;SDS011;6052;53.246;10.368;2023-09-18T01:42:52;4.18;;;3.15;;
11984;SDS011;6052;53.246;10.368;2023-09-18T01:45:22;4.32;;;3.08;;
11984;SDS011;6052;53.246;10.368;2023-09-18T01:47:51;3.72;;;2.90;;
11984;SDS011;6052;53.246;10.368;2023-09-18T01:50:21;3.55;;;3.03;;
11984;SDS011;6052;53.246;10.368;2023-09-18T01:52:53;3.13;;;2.78;;
11984;SDS011;6052;53.246;10.368;2023-09-18T01:55:22;5.70;;;3.10;;
11984;SDS011;6052;53.246;10.368;2023-09-18T01:57:51;3.42;;;3.13;;
11984;SDS011;6052;53.246;10.368;2023-09-18T02:00:21;3.53;;;3.10;;
11984;SDS011;6052;53.246;10.368;2023-09-18T02:02:51;6.72;;;3.03;;
11984;SDS011;6052;53.246;10.368;2023-09-18T02:05:40;3.10;;;2.75;;
11984;SDS011;6052;53.246;10.368;2023-09-18T02:08:13;5.72;;;3.00;;
11984;SDS011;6052;53.246;10.368;2023-09-18T02:10:43;3.15;;;2.65;;
11984;SDS011;6052;53.246;10.368;2023-09-18T02:13:12;3.55;;;3.15;;
11984;SDS011;6052;53.246;10.368;2023-09-18T02:15:44;4.75;;;3.05;;
11984;SDS011;6052;53.246;10.368;2023-09-18T02:18:13;3.40;;;2.95;;
11984;SDS011;6052;53.246;10.368;2023-09-18T02:20:42;3.25;;;2.90;;
11984;SDS011;6052;53.246;10.368;2023-09-18T02:23:17;5.18;;;3.08;;
11984;SDS011;6052;53.246;10.368;2023-09-18T02:25:54;3.53;;;2.95;;
11984;SDS011;6052;53.246;10.368;2023-09-18T02:28:24;3.15;;;2.85;;
11984;SDS011;6052;53.246;10.368;2023-09-18T02:30:54;4.18;;;2.97;;
11984;SDS011;6052;53.246;10.368;2023-09-18T02:33:24;4.65;;;3.13;;
11984;SDS011;6052;53.246;10.368;2023-09-18T02:35:53;4.00;;;2.92;;
11984;SDS011;6052;53.246;10.368;2023-09-18T02:38:26;3.25;;;2.85;;
11984;SDS011;6052;53.246;10.368;2023-09-18T02:40:57;3.53;;;2.95;;
11984;SDS011;6052;53.246;10.368;2023-09-18T02:43:26;3.17;;;2.88;;
11984;SDS011;6052;53.246;10.368;2023-09-18T02:45:55;3.35;;;2.80;;
11984;SDS011;6052;53.246;10.368;2023-09-18T02:48:25;4.60;;;3.10;;
11984;SDS011;6052;53.246;10.368;2023-09-18T02:50:54;3.85;;;2.90;;
11984;SDS011;6052;53.246;10.368;2023-09-18T02:53:26;3.78;;;3.15;;
11984;SDS011;6052;53.246;10.368;2023-09-18T02:55:57;2.97;;;2.70;;
11984;SDS011;6052;53.246;10.368;2023-09-18T02:58:27;4.57;;;2.85;;
11984;SDS011;6052;53.246;10.368;2023-09-18T03:00:57;3.55;;;2.88;;
11984;SDS011;6052;53.246;10.368;2023-09-18T03:03:29;3.70;;;3.22;;
11984;SDS011;6052;53.246;10.368;2023-09-18T03:06:01;3.20;;;2.90;;
11984;SDS011;6052;53.246;10.368;2023-09-18T03:08:35;8.45;;;3.05;;
11984;SDS011;6052;53.246;10.368;2023-09-18T03:11:10;5.40;;;3.42;;
11984;SDS011;6052;53.246;10.368;2023-09-18T03:13:42;3.00;;;2.80;;
11984;SDS011;6052;53.246;10.368;2023-09-18T03:16:13;3.70;;;3.08;;
11984;SDS011;6052;53.246;10.368;2023-09-18T03:18:43;3.55;;;3.15;;
11984;SDS011;6052;53.246;10.368;2023-09-18T03:21:13;3.55;;;2.85;;
11984;SDS011;6052;53.246;10.368;2023-09-18T03:23:45;4.38;;;3.33;;
11984;SDS011;6052;53.246;10.368;2023-09-18T03:26:14;4.30;;;3.00;;
11984;SDS011;6052;53.246;10.368;2023-09-18T03:28:43;3.40;;;2.90;;
11984;SDS011;6052;53.246;10.368;2023-09-18T03:31:13;3.28;;;2.97;;
11984;SDS011;6052;53.246;10.368;2023-09-18T03:33:42;3.88;;;3.00;;
11984;SDS011;6052;53.246;10.368;2023-09-18T03:36:13;4.15;;;3.15;;
11984;SDS011;6052;53.246;10.368;2023-09-18T03:38:45;4.10;;;3.50;;
11984;SDS011;6052;53.246;10.368;2023-09-18T03:41:14;4.32;;;3.22;;
11984;SDS011;6052;53.246;10.368;2023-09-18T03:43:44;4.05;;;3.35;;
11984;SDS011;6052;53.246;10.368;2023-09-18T03:46:15;4.85;;;2.90;;
11984;SDS011;6052;53.246;10.368;2023-09-18T03:48:44;3.60;;;3.05;;
11984;SDS011;6052;53.246;10.368;2023-09-18T03:51:14;3.05;;;2.78;;
11984;SDS011;6052;53.246;10.368;2023-09-18T03:53:47;4.15;;;3.20;;
11984;SDS011;6052;53.246;10.368;2023-09-18T03:56:17;3.13;;;2.78;;
11984;SDS011;6052;53.246;10.368;2023-09-18T03:58:46;3.75;;;3.00;;
11984;SDS011;6052;53.246;10.368;2023-09-18T04:01:18;3.10;;;2.80;;
11984;SDS011;6052;53.246;10.368;2023-09-18T04:03:48;3.45;;;3.10;;
11984;SDS011;6052;53.246;10.368;2023-09-18T04:06:17;4.00;;;3.35;;
11984;SDS011;6052;53.246;10.368;2023-09-18T04:08:49;3.80;;;3.17;;
11984;SDS011;6052;53.246;10.368;2023-09-18T04:11:19;3.35;;;3.05;;
11984;SDS011;6052;53.246;10.368;2023-09-18T04:13:52;4.15;;;3.10;;
11984;SDS011;6052;53.246;10.368;2023-09-18T04:16:22;3.78;;;3.25;;
11984;SDS011;6052;53.246;10.368;2023-09-18T04:18:51;4.82;;;3.00;;
11984;SDS011;6052;53.246;10.368;2023-09-18T04:21:20;3.47;;;3.17;;
11984;SDS011;6052;53.246;10.368;2023-09-18T04:23:54;3.95;;;3.17;;
11984;SDS011;6052;53.246;10.368;2023-09-18T04:26:25;4.10;;;3.47;;
11984;SDS011;6052;53.246;10.368;2023-09-18T04:28:56;3.42;;;2.90;;
11984;SDS011;6052;53.246;10.368;2023-09-18T04:31:25;3.80;;;3.17;;
11984;SDS011;6052;53.246;10.368;2023-09-18T04:33:55;3.95;;;3.40;;
11984;SDS011;6052;53.246;10.368;2023-09-18T04:36:24;4.13;;;2.92;;
11984;SDS011;6052;53.246;10.368;2023-09-18T04:38:57;3.63;;;3.13;;
11984;SDS011;6052;53.246;10.368;2023-09-18T04:41:26;4.18;;;3.17;;
11984;SDS011;6052;53.246;10.368;2023-09-18T04:43:55;3.38;;;3.00;;
11984;SDS011;6052;53.246;10.368;2023-09-18T04:46:25;5.90;;;3.08;;
11984;SDS011;6052;53.246;10.368;2023-09-18T04:48:56;3.95;;;3.40;;
11984;SDS011;6052;53.246;10.368;2023-09-18T04:51:25;4.35;;;3.50;;
11984;SDS011;6052;53.246;10.368;2023-09-18T04:53:57;5.38;;;3.38;;
11984;SDS011;6052;53.246;10.368;2023-09-18T04:56:26;3.67;;;3.38;;
11984;SDS011;6052;53.246;10.368;2023-09-18T04:58:56;3.92;;;3.50;;
11984;SDS011;6052;53.246;10.368;2023-09-18T05:01:26;4.47;;;3.15;;
11984;SDS011;6052;53.246;10.368;2023-09-18T05:03:56;3.92;;;3.15;;
11984;SDS011;6052;53.246;10.368;2023-09-18T05:06:26;5.18;;;3.50;;
11984;SDS011;6052;53.246;10.368;2023-09-18T05:08:58;4.18;;;3.35;;
11984;SDS011;6052;53.246;10.368;2023-09-18T05:11:29;4.00;;;3.42;;
11984;SDS011;6052;53.246;10.368;2023-09-18T05:13:58;4.47;;;3.03;;
11984;SDS011;6052;53.246;10.368;2023-09-18T05:16:28;4.28;;;3.40;;
11984;SDS011;6052;53.246;10.368;2023-09-18T05:19:01;4.50;;;3.40;;
11984;SDS011;6052;53.246;10.368;2023-09-18T05:21:31;4.20;;;3.40;;
11984;SDS011;6052;53.246;10.368;2023-09-18T05:24:03;4.10;;;3.25;;
11984;SDS011;6052;53.246;10.368;2023-09-18T05:26:33;4.25;;;3.03;;
11984;SDS011;6052;53.246;10.368;2023-09-18T05:29:03;5.00;;;3.30;;
11984;SDS011;6052;53.246;10.368;2023-09-18T05:31:32;3.85;;;3.38;;
11984;SDS011;6052;53.246;10.368;2023-09-18T05:34:03;3.88;;;3.45;;
11984;SDS011;6052;53.246;10.368;2023-09-18T05:36:32;4.10;;;3.35;;
11984;SDS011;6052;53.246;10.368;2023-09-18T05:39:05;3.83;;;3.33;;
11984;SDS011;6052;53.246;10.368;2023-09-18T05:41:36;4.25;;;3.55;;
11984;SDS011;6052;53.246;10.368;2023-09-18T05:44:06;4.70;;;3.72;;
11984;SDS011;6052;53.246;10.368;2023-09-18T05:46:36;3.65;;;3.10;;
11984;SDS011;6052;53.246;10.368;2023-09-18T05:49:06;3.95;;;3.55;;
11984;SDS011;6052;53.246;10.368;2023-09-18T05:51:36;4.28;;;3.35;;
11984;SDS011;6052;53.246;10.368;2023-09-18T05:54:08;8.52;;;3.30;;
11984;SDS011;6052;53.246;10.368;2023-09-18T05:56:37;4.10;;;3.47;;
11984;SDS011;6052;53.246;10.368;2023-09-18T05:59:07;4.03;;;3.55;;
11984;SDS011;6052;53.246;10.368;2023-09-18T06:01:36;4.25;;;3.63;;
11984;SDS011;6052;53.246;10.368;2023-09-18T06:04:06;4.38;;;3.50;;
11984;SDS011;6052;53.246;10.368;2023-09-18T06:06:37;5.72;;;3.55;;
11984;SDS011;6052;53.246;10.368;2023-09-18T06:09:09;4.38;;;3.20;;
11984;SDS011;6052;53.246;10.368;2023-09-18T06:11:39;3.70;;;3.20;;
11984;SDS011;6052;53.246;10.368;2023-09-18T06:14:09;3.53;;;3.22;;
11984;SDS011;6052;53.246;10.368;2023-09-18T06:16:39;3.60;;;3.15;;
11984;SDS011;6052;53.246;10.368;2023-09-18T06:19:08;4.05;;;3.22;;
11984;SDS011;6052;53.246;10.368;2023-09-18T06:21:38;3.70;;;3.35;;
11984;SDS011;6052;53.246;10.368;2023-09-18T06:24:10;4.50;;;3.45;;
11984;SDS011;6052;53.246;10.368;2023-09-18T06:26:40;6.13;;;3.60;;
11984;SDS011;6052;53.246;10.368;2023-09-18T06:29:09;3.72;;;3.40;;
11984;SDS011;6052;53.246;10.368;2023-09-18T06:31:38;4.28;;;3.20;;
11984;SDS011;6052;53.246;10.368;2023-09-18T06:34:08;3.42;;;3.10;;
11984;SDS011;6052;53.246;10.368;2023-09-18T06:36:37;3.55;;;3.22;;
11984;SDS011;6052;53.246;10.368;2023-09-18T06:39:09;3.50;;;3.20;;
11984;SDS011;6052;53.246;10.368;2023-09-18T06:41:39;3.53;;;3.22;;
11984;SDS011;6052;53.246;10.368;2023-09-18T06:44:09;3.92;;;3.25;;
11984;SDS011;6052;53.246;10.368;2023-09-18T06:46:38;3.70;;;3.05;;
11984;SDS011;6052;53.246;10.368;2023-09-18T06:49:08;4.18;;;3.30;;
11984;SDS011;6052;53.246;10.368;2023-09-18T06:51:38;4.10;;;3.50;;
11984;SDS011;6052;53.246;10.368;2023-09-18T06:54:11;4.20;;;3.08;;
11984;SDS011;6052;53.246;10.368;2023-09-18T06:56:41;5.20;;;3.70;;
11984;SDS011;6052;53.246;10.368;2023-09-18T06:59:11;3.47;;;3.05;;
11984;SDS011;6052;53.246;10.368;2023-09-18T07:01:41;4.10;;;2.63;;
11984;SDS011;6052;53.246;10.368;2023-09-18T07:04:10;3.20;;;2.90;;
11984;SDS011;6052;53.246;10.368;2023-09-18T07:06:40;4.28;;;3.00;;
11984;SDS011;6052;53.246;10.368;2023-09-18T07:09:12;3.70;;;3.17;;
11984;SDS011;6052;53.246;10.368;2023-09-18T07:11:42;3.72;;;2.92;;
11984;SDS011;6052;53.246;10.368;2023-09-18T07:14:11;6.07;;;3.30;;
11984;SDS011;6052;53.246;10.368;2023-09-18T07:16:41;5.63;;;3.05;;
11984;SDS011;6052;53.246;10.368;2023-09-18T07:19:11;4.28;;;3.00;;
11984;SDS011;6052;53.246;10.368;2023-09-18T07:21:43;3.90;;;3.20;;
11984;SDS011;6052;53.246;10.368;2023-09-18T07:24:15;3.45;;;2.85;;
11984;SDS011;6052;53.246;10.368;2023-09-18T07:26:47;3.50;;;2.85;;
11984;SDS011;6052;53.246;10.368;2023-09-18T07:29:17;4.05;;;3.10;;
11984;SDS011;6052;53.246;10.368;2023-09-18T07:31:46;3.25;;;2.90;;
11984;SDS011;6052;53.246;10.368;2023-09-18T07:34:16;3.90;;;3.30;;
11984;SDS011;6052;53.246;10.368;2023-09-18T07:36:46;4.78;;;3.03;;
11984;SDS011;6052;53.246;10.368;2023-09-18T07:39:23;5.80;;;3.00;;
11984;SDS011;6052;53.246;10.368;2023-09-18T07:41:55;4.60;;;3.17;;
11984;SDS011;6052;53.246;10.368;2023-09-18T07:44:25;3.40;;;2.83;;
11984;SDS011;6052;53.246;10.368;2023-09-18T07:46:55;5.57;;;3.10;;
11984;SDS011;6052;53.246;10.368;2023-09-18T07:49:24;3.75;;;3.00;;
11984;SDS011;6052;53.246;10.368;2023-09-18T07:51:53;4.40;;;3.03;;
11984;SDS011;6052;53.246;10.368;2023-09-18T07:54:25;3.58;;;3.03;;
11984;SDS011;6052;53.246;10.368;2023-09-18T07:56:55;3.53;;;2.63;;
11984;SDS011;6052;53.246;10.368;2023-09-18T07:59:25;3.92;;;2.85;;
11984;SDS011;6052;53.246;10.368;2023-09-18T08:01:56;3.22;;;2.90;;
11984;SDS011;6052;53.246;10.368;2023-09-18T08:04:25;3.88;;;3.10;;
11984;SDS011;6052;53.246;10.368;2023-09-18T08:06:55;3.22;;;2.90;;
11984;SDS011;6052;53.246;10.368;2023-09-18T08:09:27;6.53;;;2.92;;
11984;SDS011;6052;53.246;10.368;2023-09-18T08:11:57;2.75;;;2.38;;
11984;SDS011;6052;53.246;10.368;2023-09-18T08:14:28;3.95;;;2.80;;
11984;SDS011;6052;53.246;10.368;2023-09-18T08:16:58;3.03;;;2.75;;
11984;SDS011;6052;53.246;10.368;2023-09-18T08:19:36;5.47;;;2.80;;
11984;SDS011;6052;53.246;10.368;2023-09-18T08:22:06;3.95;;;2.78;;
11984;SDS011;6052;53.246;10.368;2023-09-18T08:24:39;3.20;;;2.78;;
11984;SDS011;6052;53.246;10.368;2023-09-18T08:27:08;3.53;;;2.88;;
11984;SDS011;6052;53.246;10.368;2023-09-18T08:29:39;3.95;;;2.85;;
11984;SDS011;6052;53.246;10.368;2023-09-18T08:32:08;8.68;;;3.08;;
11984;SDS011;6052;53.246;10.368;2023-09-18T08:34:38;6.30;;;3.20;;
11984;SDS011;6052;53.246;10.368;2023-09-18T08:37:07;3.15;;;2.85;;
11984;SDS011;6052;53.246;10.368;2023-09-18T08:39:40;3.85;;;3.00;;
11984;SDS011;6052;53.246;10.368;2023-09-18T08:42:09;3.85;;;3.03;;
11984;SDS011;6052;53.246;10.368;2023-09-18T08:44:40;3.10;;;2.80;;
11984;SDS011;6052;53.246;10.368;2023-09-18T08:47:13;4.28;;;3.30;;
11984;SDS011;6052;53.246;10.368;2023-09-18T08:49:43;3.28;;;2.60;;
11984;SDS011;6052;53.246;10.368;2023-09-18T08:52:13;3.50;;;2.90;;
11984;SDS011;6052;53.246;10.368;2023-09-18T08:54:47;4.63;;;3.28;;
11984;SDS011;6052;53.246;10.368;2023-09-18T08:57:17;2.97;;;2.67;;
11984;SDS011;6052;53.246;10.368;2023-09-18T08:59:46;3.72;;;2.90;;
11984;SDS011;6052;53.246;10.368;2023-09-18T09:02:19;4.68;;;3.38;;
11984;SDS011;6052;53.246;10.368;2023-09-18T09:04:49;3.15;;;2.80;;
11984;SDS011;6052;53.246;10.368;2023-09-18T09:07:18;6.75;;;3.22;;
11984;SDS011;6052;53.246;10.368;2023-09-18T09:09:50;3.83;;;3.28;;
11984;SDS011;6052;53.246;10.368;2023-09-18T09:15:22;3.17;;;2.85;;
11984;SDS011;6052;53.246;10.368;2023-09-18T09:18:01;3.75;;;2.90;;
11984;SDS011;6052;53.246;10.368;2023-09-18T09:20:34;3.15;;;2.85;;
11984;SDS011;6052;53.246;10.368;2023-09-18T09:23:05;5.25;;;3.40;;
11984;SDS011;6052;53.246;10.368;2023-09-18T09:25:38;5.15;;;3.35;;
11984;SDS011;6052;53.246;10.368;2023-09-18T09:28:08;5.28;;;3.45;;
11984;SDS011;6052;53.246;10.368;2023-09-18T09:30:38;4.40;;;3.20;;
11984;SDS011;6052;53.246;10.368;2023-09-18T09:33:09;4.57;;;2.97;;
11984;SDS011;6052;53.246;10.368;2023-09-18T09:35:41;3.45;;;3.15;;
11984;SDS011;6052;53.246;10.368;2023-09-18T09:38:11;3.92;;;3.20;;
11984;SDS011;6052;53.246;10.368;2023-09-18T09:40:45;3.30;;;3.00;;
11984;SDS011;6052;53.246;10.368;2023-09-18T09:43:14;3.53;;;3.00;;
11984;SDS011;6052;53.246;10.368;2023-09-18T09:45:46;3.17;;;2.88;;
11984;SDS011;6052;53.246;10.368;2023-09-18T09:48:15;5.45;;;3.40;;
11984;SDS011;6052;53.246;10.368;2023-09-18T09:50:46;5.30;;;3.00;;
11984;SDS011;6052;53.246;10.368;2023-09-18T09:53:17;3.63;;;3.08;;
11984;SDS011;6052;53.246;10.368;2023-09-18T09:55:55;9.05;;;3.20;;
11984;SDS011;6052;53.246;10.368;2023-09-18T09:58:26;3.33;;;3.03;;
11984;SDS011;6052;53.246;10.368;2023-09-18T10:00:59;3.83;;;3.13;;
11984;SDS011;6052;53.246;10.368;2023-09-18T10:03:38;4.07;;;3.05;;
11984;SDS011;6052;53.246;10.368;2023-09-18T10:06:08;3.50;;;3.20;;
11984;SDS011;6052;53.246;10.368;2023-09-18T10:08:39;6.40;;;2.85;;
11984;SDS011;6052;53.246;10.368;2023-09-18T10:11:13;3.47;;;3.17;;
11984;SDS011;6052;53.246;10.368;2023-09-18T10:13:46;5.38;;;3.20;;
11984;SDS011;6052;53.246;10.368;2023-09-18T10:16:17;5.13;;;2.80;;
11984;SDS011;6052;53.246;10.368;2023-09-18T10:18:52;5.95;;;2.78;;
11984;SDS011;6052;53.246;10.368;2023-09-18T10:21:31;3.33;;;2.72;;
11984;SDS011;6052;53.246;10.368;2023-09-18T10:24:07;3.22;;;2.53;;
11984;SDS011;6052;53.246;10.368;2023-09-18T10:26:47;4.65;;;3.25;;
11984;SDS011;6052;53.246;10.368;2023-09-18T10:29:20;5.07;;;2.90;;
11984;SDS011;6052;53.246;10.368;2023-09-18T10:31:52;5.13;;;2.80;;
11984;SDS011;6052;53.246;10.368;2023-09-18T10:34:23;4.78;;;3.03;;
11984;SDS011;6052;53.246;10.368;2023-09-18T10:36:53;3.25;;;2.70;;
11984;SDS011;6052;53.246;10.368;2023-09-18T10:39:24;4.88;;;2.95;;
11984;SDS011;6052;53.246;10.368;2023-09-18T10:42:00;3.90;;;2.65;;
11984;SDS011;6052;53.246;10.368;2023-09-18T10:44:32;6.05;;;3.22;;
11984;SDS011;6052;53.246;10.368;2023-09-18T10:47:03;5.50;;;2.95;;
11984;SDS011;6052;53.246;10.368;2023-09-18T10:49:35;3.60;;;2.80;;
11984;SDS011;6052;53.246;10.368;2023-09-18T10:52:05;6.70;;;2.92;;
11984;SDS011;6052;53.246;10.368;2023-09-18T10:54:40;4.03;;;2.60;;
11984;SDS011;6052;53.246;10.368;2023-09-18T10:57:12;5.00;;;2.53;;
11984;SDS011;6052;53.246;10.368;2023-09-18T10:59:44;4.15;;;2.78;;
11984;SDS011;6052;53.246;10.368;2023-09-18T11:02:15;3.85;;;2.65;;
11984;SDS011;6052;53.246;10.368;2023-09-18T11:04:46;3.50;;;2.40;;
11984;SDS011;6052;53.246;10.368;2023-09-18T11:07:19;2.72;;;2.50;;
11984;SDS011;6052;53.246;10.368;2023-09-18T11:09:49;4.57;;;2.83;;
11984;SDS011;6052;53.246;10.368;2023-09-18T11:12:41;4.85;;;2.90;;
11984;SDS011;6052;53.246;10.368;2023-09-18T11:15:24;4.38;;;2.50;;
11984;SDS011;6052;53.246;10.368;2023-09-18T11:17:58;4.97;;;2.95;;
11984;SDS011;6052;53.246;10.368;2023-09-18T11:20:33;3.42;;;2.70;;
11984;SDS011;6052;53.246;10.368;2023-09-18T11:23:09;5.93;;;2.42;;
11984;SDS011;6052;53.246;10.368;2023-09-18T11:25:45;4.55;;;2.70;;
11984;SDS011;6052;53.246;10.368;2023-09-18T11:28:25;5.82;;;2.78;;
11984;SDS011;6052;53.246;10.368;2023-09-18T11:31:00;5.20;;;2.42;;
11984;SDS011;6052;53.246;10.368;2023-09-18T11:33:30;5.05;;;2.75;;
11984;SDS011;6052;53.246;10.368;2023-09-18T11:36:04;4.05;;;2.40;;
11984;SDS011;6052;53.246;10.368;2023-09-18T11:38:51;3.85;;;2.65;;
11984;SDS011;6052;53.246;10.368;2023-09-18T11:41:25;3.38;;;2.47;;
11984;SDS011;6052;53.246;10.368;2023-09-18T11:46:58;4.22;;;2.75;;
11984;SDS011;6052;53.246;10.368;2023-09-18T11:49:30;4.22;;;2.50;;
11984;SDS011;6052;53.246;10.368;2023-09-18T11:52:01;5.35;;;2.78;;
11984;SDS011;6052;53.246;10.368;2023-09-18T11:54:32;7.85;;;2.47;;
11984;SDS011;6052;53.246;10.368;2023-09-18T11:57:03;4.85;;;2.38;;
11984;SDS011;6052;53.246;10.368;2023-09-18T11:59:36;4.05;;;2.17;;
11984;SDS011;6052;53.246;10.368;2023-09-18T12:02:13;5.78;;;2.40;;
11984;SDS011;6052;53.246;10.368;2023-09-18T12:04:47;4.53;;;2.08;;
11984;SDS011;6052;53.246;10.368;2023-09-18T12:07:17;4.45;;;2.15;;
11984;SDS011;6052;53.246;10.368;2023-09-18T12:09:46;4.15;;;2.47;;
11984;SDS011;6052;53.246;10.368;2023-09-18T12:12:16;4.18;;;2.25;;
11984;SDS011;6052;53.246;10.368;2023-09-18T12:14:46;4.10;;;2.35;;
11984;SDS011;6052;53.246;10.368;2023-09-18T12:17:18;2.97;;;2.28;;
11984;SDS011;6052;53.246;10.368;2023-09-18T12:19:51;6.03;;;2.10;;
11984;SDS011;6052;53.246;10.368;2023-09-18T12:22:25;3.75;;;2.42;;
11984;SDS011;6052;53.246;10.368;2023-09-18T12:25:07;3.35;;;2.13;;
11984;SDS011;6052;53.246;10.368;2023-09-18T12:27:42;4.00;;;1.95;;
11984;SDS011;6052;53.246;10.368;2023-09-18T12:30:12;3.42;;;2.00;;
11984;SDS011;6052;53.246;10.368;2023-09-18T12:32:50;2.53;;;1.60;;
11984;SDS011;6052;53.246;10.368;2023-09-18T12:35:20;4.38;;;1.90;;
11984;SDS011;6052;53.246;10.368;2023-09-18T12:37:51;3.22;;;1.75;;
11984;SDS011;6052;53.246;10.368;2023-09-18T12:40:21;3.15;;;1.83;;
11984;SDS011;6052;53.246;10.368;2023-09-18T12:42:51;3.78;;;1.70;;
11984;SDS011;6052;53.246;10.368;2023-09-18T12:45:23;4.07;;;2.00;;
11984;SDS011;6052;53.246;10.368;2023-09-18T12:47:56;4.90;;;1.90;;
11984;SDS011;6052;53.246;10.368;2023-09-18T12:50:27;4.13;;;1.52;;
11984;SDS011;6052;53.246;10.368;2023-09-18T12:53:06;5.65;;;1.92;;
11984;SDS011;6052;53.246;10.368;2023-09-18T12:55:36;5.25;;;1.60;;
11984;SDS011;6052;53.246;10.368;2023-09-18T12:58:09;4.10;;;1.92;;
11984;SDS011;6052;53.246;10.368;2023-09-18T13:00:44;5.78;;;1.50;;
11984;SDS011;6052;53.246;10.368;2023-09-18T13:03:18;4.55;;;1.88;;
11984;SDS011;6052;53.246;10.368;2023-09-18T13:05:49;2.63;;;1.50;;
11984;SDS011;6052;53.246;10.368;2023-09-18T13:08:21;2.33;;;1.48;;
11984;SDS011;6052;53.246;10.368;2023-09-18T13:10:51;4.05;;;1.83;;
11984;SDS011;6052;53.246;10.368;2023-09-18T13:13:21;5.07;;;1.45;;
11984;SDS011;6052;53.246;10.368;2023-09-18T13:15:51;1.88;;;1.50;;
11984;SDS011;6052;53.246;10.368;2023-09-18T13:18:24;3.67;;;1.67;;
11984;SDS011;6052;53.246;10.368;2023-09-18T13:20:54;1.60;;;1.45;;
11984;SDS011;6052;53.246;10.368;2023-09-18T13:23:27;1.88;;;1.33;;
11984;SDS011;6052;53.246;10.368;2023-09-18T13:26:01;3.60;;;1.60;;
11984;SDS011;6052;53.246;10.368;2023-09-18T13:28:32;2.80;;;1.60;;
11984;SDS011;6052;53.246;10.368;2023-09-18T13:31:03;7.18;;;1.58;;
11984;SDS011;6052;53.246;10.368;2023-09-18T13:33:40;4.65;;;1.67;;
11984;SDS011;6052;53.246;10.368;2023-09-18T13:36:11;2.63;;;1.48;;
11984;SDS011;6052;53.246;10.368;2023-09-18T13:38:41;5.30;;;1.50;;
11984;SDS011;6052;53.246;10.368;2023-09-18T13:41:11;2.90;;;1.35;;
11984;SDS011;6052;53.246;10.368;2023-09-18T13:43:41;4.78;;;1.45;;
11984;SDS011;6052;53.246;10.368;2023-09-18T13:46:11;1.67;;;1.08;;
11984;SDS011;6052;53.246;10.368;2023-09-18T13:48:43;1.65;;;1.40;;
11984;SDS011;6052;53.246;10.368;2023-09-18T13:51:14;3.58;;;1.55;;
11984;SDS011;6052;53.246;10.368;2023-09-18T13:53:43;2.53;;;1.20;;
11984;SDS011;6052;53.246;10.368;2023-09-18T13:56:14;1.90;;;1.30;;
11984;SDS011;6052;53.246;10.368;2023-09-18T13:58:43;2.13;;;1.25;;
11984;SDS011;6052;53.246;10.368;2023-09-18T14:01:13;2.05;;;1.23;;
11984;SDS011;6052;53.246;10.368;2023-09-18T14:03:45;1.90;;;1.25;;
11984;SDS011;6052;53.246;10.368;2023-09-18T14:06:15;1.48;;;1.30;;
11984;SDS011;6052;53.246;10.368;2023-09-18T14:08:44;4.70;;;1.40;;
11984;SDS011;6052;53.246;10.368;2023-09-18T14:11:14;4.05;;;1.23;;
11984;SDS011;6052;53.246;10.368;2023-09-18T14:13:47;1.90;;;1.40;;
11984;SDS011;6052;53.246;10.368;2023-09-18T14:16:16;3.03;;;1.88;;
11984;SDS011;6052;53.246;10.368;2023-09-18T14:18:48;1.70;;;1.40;;
11984;SDS011;6052;53.246;10.368;2023-09-18T14:21:20;3.13;;;1.30;;
11984;SDS011;6052;53.246;10.368;2023-09-18T14:23:50;2.80;;;1.50;;
11984;SDS011;6052;53.246;10.368;2023-09-18T14:26:19;5.70;;;1.33;;
11984;SDS011;6052;53.246;10.368;2023-09-18T14:28:49;2.03;;;1.13;;
11984;SDS011;6052;53.246;10.368;2023-09-18T14:31:18;1.55;;;1.20;;
11984;SDS011;6052;53.246;10.368;2023-09-18T14:33:50;2.95;;;1.20;;
11984;SDS011;6052;53.246;10.368;2023-09-18T14:36:20;2.63;;;1.27;;
11984;SDS011;6052;53.246;10.368;2023-09-18T14:38:50;2.22;;;1.30;;
11984;SDS011;6052;53.246;10.368;2023-09-18T14:41:20;2.80;;;1.38;;
11984;SDS011;6052;53.246;10.368;2023-09-18T14:43:51;3.35;;;1.48;;
11984;SDS011;6052;53.246;10.368;2023-09-18T14:46:21;2.00;;;1.38;;
11984;SDS011;6052;53.246;10.368;2023-09-18T14:48:53;2.22;;;1.38;;
11984;SDS011;6052;53.246;10.368;2023-09-18T14:51:22;1.67;;;1.33;;
11984;SDS011;6052;53.246;10.368;2023-09-18T14:53:51;3.35;;;1.15;;
11984;SDS011;6052;53.246;10.368;2023-09-18T14:56:21;2.65;;;1.55;;
11984;SDS011;6052;53.246;10.368;2023-09-18T14:58:50;2.15;;;1.30;;
11984;SDS011;6052;53.246;10.368;2023-09-18T15:01:21;1.55;;;1.40;;
11984;SDS011;6052;53.246;10.368;2023-09-18T15:03:54;3.97;;;1.33;;
11984;SDS011;6052;53.246;10.368;2023-09-18T15:06:24;2.67;;;1.30;;
11984;SDS011;6052;53.246;10.368;2023-09-18T15:08:53;4.97;;;1.40;;
11984;SDS011;6052;53.246;10.368;2023-09-18T15:11:23;4.50;;;1.30;;
11984;SDS011;6052;53.246;10.368;2023-09-18T15:13:52;1.83;;;1.25;;
11984;SDS011;6052;53.246;10.368;2023-09-18T15:16:22;5.35;;;1.13;;
11984;SDS011;6052;53.246;10.368;2023-09-18T15:18:54;2.03;;;1.52;;